Terminal Aerodrome Forecast
Issued by NWS

Home | Current Version | Previous Version | Graphics & Text | Print | Product List | Glossary On
Versions: 1 2 3 4 5 6 7 8 9 10 11 12 13 14 15 16
253
FTUS43 KGRB 071659 AAA
TAFCWA
TAF AMD
KCWA 071659Z 0717/0812 24014G20KT P6SM BKN016 OVC026
     FM071800 25009KT P6SM -RASN SCT025 BKN035
     FM072300 26007KT P6SM -SN BKN025
     FM080300 27009KT 5SM -SN BKN015
     FM080600 30010G15KT 3SM -SN BKN010=

USA.gov is the U.S. government's official web portal to all federal, state and local government web resources and services.